createdAt,value
2023-02-11T00:01:26.995Z,48.78
2023-02-11T00:03:55.213Z,45.35
2023-02-11T00:06:23.263Z,52.70
2023-02-11T00:08:50.921Z,53.22
2023-02-11T00:11:19.576Z,63.63
2023-02-11T00:13:47.957Z,54.00
2023-02-11T00:16:18.104Z,47.20
2023-02-11T00:18:46.372Z,55.50
2023-02-11T00:21:17.150Z,57.17
2023-02-11T00:23:46.097Z,58.35
2023-02-11T00:26:22.015Z,51.75
2023-02-11T00:28:51.842Z,51.90
2023-02-11T00:31:21.406Z,53.60
2023-02-11T00:33:49.180Z,61.72
2023-02-11T00:36:24.602Z,55.65
2023-02-11T00:38:53.670Z,61.00
2023-02-11T00:41:22.105Z,53.35
2023-02-11T00:43:49.932Z,70.30
2023-02-11T00:46:19.314Z,64.95
2023-02-11T00:48:46.829Z,59.25
2023-02-11T00:51:14.024Z,67.38
2023-02-11T00:53:41.557Z,60.28
2023-02-11T00:56:08.881Z,51.40
2023-02-11T00:58:36.520Z,63.17
2023-02-11T01:01:04.254Z,65.40
2023-02-11T01:03:31.740Z,60.63
2023-02-11T01:05:59.046Z,54.05
2023-02-11T01:08:26.761Z,57.30
2023-02-11T01:10:56.208Z,57.30
2023-02-11T01:15:51.647Z,59.80
2023-02-11T01:18:19.919Z,60.40
2023-02-11T01:20:50.758Z,54.90
2023-02-11T01:23:18.518Z,50.72
2023-02-11T01:25:46.516Z,58.72
2023-02-11T01:28:23.008Z,56.22
2023-02-11T01:30:50.815Z,60.65
2023-02-11T01:33:18.358Z,57.38
2023-02-11T01:35:46.505Z,62.38
2023-02-11T01:38:24.620Z,55.97
2023-02-11T01:41:02.925Z,55.90
2023-02-11T01:43:38.267Z,61.10
2023-02-11T01:46:28.489Z,60.20
2023-02-11T01:49:01.631Z,68.80
2023-02-11T01:51:38.295Z,69.38
2023-02-11T01:54:27.980Z,61.58
2023-02-11T01:57:16.852Z,60.90
2023-02-11T01:59:47.838Z,61.85
2023-02-11T02:02:23.062Z,65.68
2023-02-11T02:05:00.599Z,65.55
2023-02-11T02:07:42.748Z,65.47
2023-02-11T02:10:17.356Z,59.83
2023-02-11T02:12:44.483Z,60.40
2023-02-11T02:15:18.775Z,67.25
2023-02-11T02:18:02.731Z,62.60
2023-02-11T02:20:45.438Z,61.83
2023-02-11T02:23:15.242Z,62.10
2023-02-11T02:26:16.669Z,60.80
2023-02-11T02:29:02.222Z,62.83
2023-02-11T02:31:51.126Z,65.95
2023-02-11T02:34:36.569Z,62.75
2023-02-11T02:37:19.916Z,63.63
2023-02-11T02:39:50.255Z,55.53
2023-02-11T02:42:20.202Z,64.60
2023-02-11T02:44:51.362Z,67.50
2023-02-11T02:47:19.344Z,61.42
2023-02-11T02:49:46.419Z,61.42
2023-02-11T02:52:30.748Z,64.82
2023-02-11T02:55:22.703Z,66.03
2023-02-11T02:58:08.637Z,65.95
2023-02-11T03:01:17.804Z,70.32
2023-02-11T03:04:12.198Z,70.32
2023-02-11T03:06:55.750Z,62.20
2023-02-11T03:09:39.084Z,62.05
2023-02-11T03:12:07.751Z,61.10
2023-02-11T03:14:35.960Z,64.63
2023-02-11T03:17:05.977Z,63.60
2023-02-11T03:19:46.168Z,62.88
2023-02-11T03:25:07.586Z,54.13
2023-02-11T03:27:47.789Z,64.43
2023-02-11T03:30:53.457Z,57.85
2023-02-11T03:33:32.188Z,67.93
2023-02-11T03:36:17.658Z,58.63
2023-02-11T03:38:51.867Z,65.53
2023-02-11T03:41:23.502Z,59.88
2023-02-11T03:43:54.428Z,65.93
2023-02-11T03:46:28.965Z,56.80
2023-02-11T03:49:03.038Z,60.53
2023-02-11T03:51:33.305Z,51.80
2023-02-11T03:54:02.594Z,54.17
2023-02-11T03:56:35.459Z,58.22
2023-02-11T03:59:02.891Z,58.25
2023-02-11T04:01:30.314Z,56.65
2023-02-11T04:03:57.367Z,60.97
2023-02-11T04:06:24.767Z,62.85
2023-02-11T04:08:51.828Z,59.63
2023-02-11T04:11:19.286Z,56.90
2023-02-11T04:13:46.385Z,56.90
2023-02-11T04:16:13.694Z,57.80
2023-02-11T04:18:40.811Z,53.67
2023-02-11T04:21:08.259Z,62.47
2023-02-11T04:23:35.674Z,59.80
2023-02-11T04:26:03.653Z,59.28
2023-02-11T04:28:31.483Z,59.13
2023-02-11T04:30:59.098Z,57.60
2023-02-11T04:33:26.228Z,66.63
2023-02-11T04:35:53.671Z,61.00
2023-02-11T04:38:20.726Z,61.42
2023-02-11T04:40:48.382Z,56.78
2023-02-11T04:43:15.668Z,56.08
2023-02-11T04:45:43.232Z,54.40
2023-02-11T04:48:10.349Z,62.78
2023-02-11T04:50:37.862Z,58.40
2023-02-11T04:53:05.013Z,61.72
2023-02-11T04:55:32.378Z,63.83
2023-02-11T04:57:59.470Z,56.30
2023-02-11T05:00:26.950Z,58.70
2023-02-11T05:02:54.007Z,56.88
2023-02-11T05:05:21.644Z,63.60
2023-02-11T05:07:48.835Z,58.35
2023-02-11T05:10:16.324Z,60.40
2023-02-11T05:12:43.380Z,58.83
2023-02-11T05:15:10.850Z,56.95
2023-02-11T05:17:38.003Z,54.45
2023-02-11T05:20:05.992Z,64.00
2023-02-11T05:22:33.022Z,64.13
2023-02-11T05:25:00.462Z,55.58
2023-02-11T05:27:27.584Z,53.60
2023-02-11T05:29:54.945Z,58.40
2023-02-11T05:32:22.030Z,55.92
2023-02-11T05:34:49.508Z,56.95
2023-02-11T05:37:16.634Z,59.58
2023-02-11T05:39:44.114Z,57.63
2023-02-11T05:42:11.346Z,57.05
2023-02-11T05:44:39.273Z,55.08
2023-02-11T05:47:09.208Z,51.05
2023-02-11T05:49:36.983Z,56.95
2023-02-11T05:52:04.784Z,50.97
2023-02-11T05:54:32.885Z,55.22
2023-02-11T05:57:00.720Z,53.38
2023-02-11T05:59:28.160Z,46.13
2023-02-11T06:01:57.385Z,51.55
2023-02-11T06:04:24.767Z,48.72
2023-02-11T06:06:51.981Z,44.10
2023-02-11T06:09:19.592Z,47.80
2023-02-11T06:11:46.790Z,47.50
2023-02-11T06:14:14.820Z,51.05
2023-02-11T06:16:41.976Z,46.20
2023-02-11T06:19:09.558Z,46.30
2023-02-11T06:21:43.879Z,44.53
2023-02-11T06:24:12.640Z,43.00
2023-02-11T06:26:39.760Z,38.08
2023-02-11T06:29:07.446Z,40.95
2023-02-11T06:31:34.865Z,45.42
2023-02-11T06:34:03.561Z,43.13
2023-02-11T06:36:30.969Z,37.70
2023-02-11T06:38:58.459Z,39.95
2023-02-11T06:41:25.492Z,37.67
2023-02-11T06:43:53.493Z,39.55
2023-02-11T06:46:20.734Z,36.85
2023-02-11T06:48:48.224Z,38.53
2023-02-11T06:51:16.040Z,51.45
2023-02-11T06:53:46.223Z,65.05
2023-02-11T06:56:16.509Z,47.20
2023-02-11T06:58:44.704Z,37.28
2023-02-11T07:01:14.414Z,38.33
2023-02-11T07:03:44.576Z,38.10
2023-02-11T07:08:42.548Z,38.08
2023-02-11T07:11:24.329Z,47.88
2023-02-11T07:13:53.684Z,38.45
2023-02-11T07:16:21.757Z,30.60
2023-02-11T07:18:49.826Z,30.27
2023-02-11T07:21:19.980Z,33.70
2023-02-11T07:23:48.501Z,31.48
2023-02-11T07:26:23.148Z,34.42
2023-02-11T07:28:51.404Z,29.83
2023-02-11T07:31:26.759Z,28.98
2023-02-11T07:33:57.310Z,37.97
2023-02-11T07:36:24.884Z,25.63
2023-02-11T07:38:54.032Z,25.50
2023-02-11T07:41:22.984Z,28.73
2023-02-11T07:43:51.043Z,22.33
2023-02-11T07:46:27.894Z,34.15
2023-02-11T07:48:55.875Z,36.80
2023-02-11T07:51:26.789Z,27.38
2023-02-11T07:53:55.750Z,24.83
2023-02-11T07:56:23.732Z,18.80
2023-02-11T07:58:52.555Z,25.42
2023-02-11T08:01:25.236Z,21.38
2023-02-11T08:03:53.316Z,17.42
2023-02-11T08:06:22.954Z,16.42
2023-02-11T08:11:24.395Z,24.40
2023-02-11T08:13:53.351Z,13.13
2023-02-11T08:16:24.595Z,14.88
2023-02-11T08:18:54.112Z,14.10
2023-02-11T08:21:21.478Z,18.77
2023-02-11T08:23:49.877Z,18.08
2023-02-11T08:26:19.813Z,17.58
2023-02-11T08:28:49.100Z,15.15
2023-02-11T08:31:25.742Z,14.57
2023-02-11T08:33:54.866Z,17.15
2023-02-11T08:36:24.873Z,15.55
2023-02-11T08:39:05.649Z,18.23
2023-02-11T08:41:39.482Z,19.20
2023-02-11T08:44:07.257Z,28.83
2023-02-11T08:46:34.609Z,12.00
2023-02-11T08:49:02.294Z,23.23
2023-02-11T08:51:31.679Z,13.63
2023-02-11T08:54:00.532Z,14.20
2023-02-11T08:56:28.595Z,16.60
2023-02-11T08:58:56.325Z,12.60
2023-02-11T09:01:26.917Z,12.35
2023-02-11T09:03:55.172Z,10.55
2023-02-11T09:06:23.597Z,12.85
2023-02-11T09:08:53.521Z,14.85
2023-02-11T09:11:26.029Z,23.75
2023-02-11T09:13:54.599Z,15.00
2023-02-11T09:16:28.268Z,10.52
2023-02-11T09:19:01.189Z,104.07
2023-02-11T09:21:29.567Z,15.93
2023-02-11T09:23:57.440Z,19.33
2023-02-11T09:26:41.209Z,12.85
2023-02-11T09:29:18.995Z,36.42
2023-02-11T09:34:17.423Z,21.95
2023-02-11T09:36:44.646Z,11.38
2023-02-11T09:39:17.082Z,13.77
2023-02-11T09:42:26.368Z,14.85
2023-02-11T09:45:01.195Z,16.48
2023-02-11T09:47:34.737Z,27.00
2023-02-11T09:50:15.236Z,12.65
2023-02-11T09:52:57.138Z,13.48
2023-02-11T09:55:30.568Z,13.65
2023-02-11T09:57:58.549Z,10.23
2023-02-11T10:00:38.212Z,23.90
2023-02-11T10:03:05.355Z,13.93
2023-02-11T10:05:53.659Z,19.35
2023-02-11T10:08:44.122Z,33.53
2023-02-11T10:11:31.017Z,24.63
2023-02-11T10:14:45.743Z,18.35
2023-02-11T10:17:38.297Z,15.00
2023-02-11T10:20:17.018Z,7.72
2023-02-11T10:22:53.381Z,8.70
2023-02-11T10:25:38.603Z,11.32
2023-02-11T10:28:22.229Z,7.10
2023-02-11T10:31:06.452Z,6.38
2023-02-11T10:33:37.252Z,6.80
2023-02-11T10:36:05.284Z,4.75
2023-02-11T10:38:34.067Z,4.07
2023-02-11T10:41:01.650Z,6.35
2023-02-11T10:43:32.225Z,7.65
2023-02-11T10:46:03.118Z,5.82
2023-02-11T10:48:46.903Z,5.30
2023-02-11T10:51:21.502Z,8.65
2023-02-11T10:54:08.711Z,8.07
2023-02-11T10:57:00.407Z,10.40
2023-02-11T10:59:39.198Z,9.98
2023-02-11T11:02:32.936Z,11.63
2023-02-11T11:05:17.540Z,14.32
2023-02-11T11:08:21.636Z,9.55
2023-02-11T11:11:47.144Z,10.02
2023-02-11T11:14:49.973Z,14.23
2023-02-11T11:18:46.161Z,11.82
2023-02-11T11:22:36.060Z,9.20
2023-02-11T11:26:02.266Z,12.48
2023-02-11T11:30:14.499Z,13.15
2023-02-11T11:37:33.232Z,14.60
2023-02-11T11:41:54.648Z,27.67
2023-02-11T11:45:37.683Z,13.20
2023-02-11T11:48:41.310Z,15.40
2023-02-11T11:55:35.290Z,14.40
2023-02-11T11:59:06.453Z,16.13
2023-02-11T12:03:31.151Z,10.63
2023-02-11T12:07:43.263Z,9.55
2023-02-11T12:15:53.930Z,18.13
2023-02-11T12:19:49.822Z,64.25
2023-02-11T12:24:05.882Z,70.47
2023-02-11T12:35:50.747Z,36.53
2023-02-11T12:43:24.978Z,24.55
2023-02-11T12:47:03.834Z,27.55
2023-02-11T12:51:07.259Z,38.75
2023-02-11T12:55:09.321Z,27.25
2023-02-11T12:58:44.505Z,32.60
2023-02-11T13:01:53.803Z,33.83
2023-02-11T13:08:34.099Z,29.23
2023-02-11T13:11:44.566Z,33.70
2023-02-11T13:14:46.324Z,30.15
2023-02-11T13:18:16.782Z,21.98
2023-02-11T13:21:56.301Z,21.98
2023-02-11T13:25:07.674Z,61.85
2023-02-11T13:28:41.424Z,28.88
2023-02-11T13:31:39.608Z,30.35
2023-02-11T13:34:56.239Z,43.45
2023-02-11T13:38:12.351Z,153.02
2023-02-11T13:41:29.144Z,52.50
2023-02-11T13:44:48.744Z,45.38
2023-02-11T13:48:08.735Z,29.98
2023-02-11T13:51:58.853Z,37.85
2023-02-11T13:55:36.601Z,49.75
2023-02-11T13:58:30.955Z,35.65
2023-02-11T14:02:20.475Z,37.35
2023-02-11T14:05:47.270Z,29.35
2023-02-11T14:09:19.289Z,40.20
2023-02-11T14:15:22.196Z,35.22
2023-02-11T14:17:54.732Z,32.08
2023-02-11T14:20:46.119Z,41.20
2023-02-11T14:23:29.346Z,28.42
2023-02-11T14:26:16.059Z,30.85
2023-02-11T14:28:56.199Z,44.83
2023-02-11T14:32:05.919Z,23.35
2023-02-11T14:35:16.196Z,33.05
2023-02-11T14:38:05.940Z,33.25
2023-02-11T14:40:41.117Z,29.15
2023-02-11T14:43:28.422Z,26.75
2023-02-11T14:46:00.318Z,27.02
2023-02-11T14:48:31.821Z,26.40
2023-02-11T14:51:00.847Z,36.88
2023-02-11T14:53:31.893Z,36.55
2023-02-11T14:55:59.523Z,38.03
2023-02-11T14:58:32.157Z,29.85
2023-02-11T15:01:07.774Z,51.55
2023-02-11T15:03:43.603Z,43.72
2023-02-11T15:06:21.907Z,39.33
2023-02-11T15:08:55.103Z,29.67
2023-02-11T15:11:26.727Z,23.27
2023-02-11T15:13:59.183Z,42.35
2023-02-11T15:16:29.334Z,33.22
2023-02-11T15:19:02.828Z,37.33
2023-02-11T15:21:34.671Z,32.08
2023-02-11T15:24:39.626Z,32.17
2023-02-11T15:27:14.585Z,38.53
2023-02-11T15:29:50.547Z,32.33
2023-02-11T15:32:36.813Z,34.75
2023-02-11T15:35:11.922Z,36.65
2023-02-11T15:37:40.493Z,29.10
2023-02-11T15:40:19.166Z,23.90
2023-02-11T15:43:13.923Z,24.45
2023-02-11T15:45:56.519Z,26.52
2023-02-11T15:48:37.193Z,26.08
2023-02-11T15:51:23.502Z,38.72
2023-02-11T15:54:02.947Z,25.90
2023-02-11T15:56:45.709Z,28.95
2023-02-11T15:59:26.099Z,38.15
2023-02-11T16:01:55.075Z,33.95
2023-02-11T16:04:26.601Z,39.38
2023-02-11T16:06:55.850Z,34.78
2023-02-11T16:09:36.052Z,24.05
2023-02-11T16:12:25.047Z,32.30
2023-02-11T16:14:52.506Z,30.17
2023-02-11T16:17:27.905Z,28.90
2023-02-11T16:19:55.396Z,37.10
2023-02-11T16:22:26.595Z,30.25
2023-02-11T16:24:57.672Z,33.17
2023-02-11T16:27:44.197Z,45.92
2023-02-11T16:30:27.080Z,41.30
2023-02-11T16:32:54.960Z,63.58
2023-02-11T16:35:22.401Z,28.55
2023-02-11T16:37:50.119Z,24.17
2023-02-11T16:40:17.853Z,28.95
2023-02-11T16:42:45.487Z,27.77
2023-02-11T16:45:13.799Z,18.67
2023-02-11T16:47:42.844Z,21.52
2023-02-11T16:50:19.483Z,17.75
2023-02-11T16:52:48.760Z,35.00
2023-02-11T16:55:17.513Z,40.38
2023-02-11T16:57:46.468Z,38.78
2023-02-11T17:00:17.820Z,34.17
2023-02-11T17:02:46.125Z,29.52
2023-02-11T17:05:23.176Z,33.70
2023-02-11T17:07:51.463Z,24.92
2023-02-11T17:10:21.805Z,18.30
2023-02-11T17:12:51.352Z,24.35
2023-02-11T17:15:19.378Z,16.23
2023-02-11T17:17:48.537Z,16.33
2023-02-11T17:20:16.641Z,23.75
2023-02-11T17:22:44.998Z,17.38
2023-02-11T17:25:12.973Z,14.75
2023-02-11T17:27:42.245Z,10.98
2023-02-11T17:30:13.611Z,11.93
2023-02-11T17:32:41.479Z,10.55
2023-02-11T17:35:09.266Z,8.48
2023-02-11T17:37:37.851Z,12.13
2023-02-11T17:40:06.493Z,10.52
2023-02-11T17:42:34.704Z,15.47
2023-02-11T17:45:02.120Z,9.13
2023-02-11T17:47:31.296Z,6.70
2023-02-11T17:49:59.102Z,7.20
2023-02-11T17:52:28.129Z,8.90
2023-02-11T17:54:56.156Z,6.18
2023-02-11T17:57:23.880Z,7.88
2023-02-11T17:59:51.868Z,8.93
2023-02-11T18:02:19.698Z,6.47
2023-02-11T18:04:47.070Z,11.07
2023-02-11T18:07:14.955Z,8.63
2023-02-11T18:09:44.097Z,9.60
2023-02-11T18:12:11.922Z,5.25
2023-02-11T18:14:40.522Z,9.60
2023-02-11T18:17:08.293Z,12.55
2023-02-11T18:19:36.661Z,7.20
2023-02-11T18:22:04.708Z,5.95
2023-02-11T18:24:32.870Z,6.88
2023-02-11T18:27:01.430Z,7.93
2023-02-11T18:29:29.135Z,8.45
2023-02-11T18:31:57.702Z,7.07
2023-02-11T18:34:25.758Z,5.60
2023-02-11T18:36:54.232Z,5.07
2023-02-11T18:39:24.472Z,8.63
2023-02-11T18:41:57.019Z,6.78
2023-02-11T18:44:26.568Z,6.70
2023-02-11T18:49:23.701Z,9.20
2023-02-11T18:51:52.355Z,10.13
2023-02-11T18:54:21.517Z,9.15
2023-02-11T18:59:18.119Z,10.15
2023-02-11T19:01:47.335Z,5.97
2023-02-11T19:04:20.534Z,4.50
2023-02-11T19:06:51.460Z,8.77
2023-02-11T19:09:24.840Z,7.35
2023-02-11T19:12:30.730Z,5.15
2023-02-11T19:15:10.203Z,5.95
2023-02-11T19:18:19.054Z,10.90
2023-02-11T19:20:50.183Z,7.43
2023-02-11T19:23:18.993Z,7.15
2023-02-11T19:25:48.398Z,6.03
2023-02-11T19:28:16.230Z,10.05
2023-02-11T19:30:44.253Z,4.72
2023-02-11T19:33:12.967Z,5.87
2023-02-11T19:35:40.997Z,7.07
2023-02-11T19:38:09.396Z,8.88
2023-02-11T19:40:37.339Z,11.02
2023-02-11T19:43:05.817Z,12.75
2023-02-11T19:45:38.336Z,8.60
2023-02-11T19:48:06.644Z,5.07
2023-02-11T19:50:34.037Z,8.18
2023-02-11T19:53:02.950Z,7.72
2023-02-11T19:55:31.077Z,5.65
2023-02-11T19:57:59.280Z,8.95
2023-02-11T20:00:26.782Z,4.70
2023-02-11T20:02:55.284Z,6.03
2023-02-11T20:05:22.895Z,6.18
2023-02-11T20:07:50.849Z,7.68
2023-02-11T20:10:18.550Z,5.88
2023-02-11T20:12:48.827Z,5.82
2023-02-11T20:15:17.430Z,9.43
2023-02-11T20:17:45.831Z,9.82
2023-02-11T20:20:14.121Z,8.48
2023-02-11T20:22:42.951Z,11.25
2023-02-11T20:25:14.467Z,13.40
2023-02-11T20:27:45.813Z,10.85
2023-02-11T20:30:15.573Z,11.50
2023-02-11T20:32:44.509Z,14.63
2023-02-11T20:35:12.380Z,13.63
2023-02-11T20:37:43.788Z,9.23
2023-02-11T20:40:12.630Z,7.03
2023-02-11T20:42:41.153Z,8.38
2023-02-11T20:45:09.708Z,6.22
2023-02-11T20:47:39.066Z,7.65
2023-02-11T20:50:07.948Z,8.73
2023-02-11T20:52:40.713Z,3.97
2023-02-11T20:55:08.729Z,3.50
2023-02-11T20:57:37.177Z,2.83
2023-02-11T21:00:06.421Z,3.30
2023-02-11T21:02:34.853Z,2.60
2023-02-11T21:05:02.989Z,2.25
2023-02-11T21:07:31.648Z,2.05
2023-02-11T21:09:59.644Z,1.65
2023-02-11T21:12:27.908Z,5.63
2023-02-11T21:14:57.290Z,4.35
2023-02-11T21:17:26.622Z,4.38
2023-02-11T21:19:54.342Z,3.33
2023-02-11T21:22:22.392Z,6.68
2023-02-11T21:24:50.677Z,1.63
2023-02-11T21:27:19.399Z,5.25
2023-02-11T21:29:54.165Z,3.65
2023-02-11T21:32:22.951Z,5.72
2023-02-11T21:34:51.115Z,5.38
2023-02-11T21:37:19.093Z,6.32
2023-02-11T21:39:46.568Z,7.63
2023-02-11T21:42:14.562Z,8.00
2023-02-11T21:44:42.232Z,8.48
2023-02-11T21:47:10.182Z,11.02
2023-02-11T21:49:38.156Z,8.90
2023-02-11T21:52:06.050Z,9.55
2023-02-11T21:54:33.876Z,7.13
2023-02-11T21:57:03.305Z,11.48
2023-02-11T21:59:32.023Z,8.52
2023-02-11T22:01:59.906Z,7.32
2023-02-11T22:04:27.496Z,4.47
2023-02-11T22:06:55.995Z,6.05
2023-02-11T22:09:23.827Z,4.25
2023-02-11T22:11:53.164Z,5.70
2023-02-11T22:14:20.529Z,4.57
2023-02-11T22:16:48.429Z,6.97
2023-02-11T22:19:15.795Z,6.00
2023-02-11T22:21:43.561Z,6.03
2023-02-11T22:24:11.129Z,3.03
2023-02-11T22:26:38.957Z,4.32
2023-02-11T22:29:06.268Z,3.63
2023-02-11T22:31:35.297Z,4.50
2023-02-11T22:34:04.774Z,5.72
2023-02-11T22:36:35.517Z,6.60
2023-02-11T22:39:13.877Z,3.35
2023-02-11T22:41:43.355Z,4.35
2023-02-11T22:44:11.776Z,6.03
2023-02-11T22:46:46.264Z,5.25
2023-02-11T22:49:15.829Z,14.18
2023-02-11T22:51:44.131Z,6.88
2023-02-11T22:54:18.936Z,7.03
2023-02-11T22:56:50.840Z,2.92
2023-02-11T22:59:19.002Z,4.00
2023-02-11T23:01:46.864Z,2.45
2023-02-11T23:04:16.180Z,95.50
2023-02-11T23:06:43.998Z,5.60
2023-02-11T23:09:14.754Z,13.20
2023-02-11T23:11:42.633Z,24.88
2023-02-11T23:14:12.668Z,7.95
2023-02-11T23:16:41.643Z,21.38
2023-02-11T23:19:10.376Z,3.47
2023-02-11T23:21:39.350Z,3.70
2023-02-11T23:24:15.924Z,4.25
2023-02-11T23:26:44.626Z,3.65
2023-02-11T23:29:12.378Z,6.85
2023-02-11T23:31:43.896Z,2.47
2023-02-11T23:34:12.266Z,4.63
2023-02-11T23:36:39.800Z,2.72
2023-02-11T23:39:07.077Z,6.45
2023-02-11T23:41:35.123Z,5.78
2023-02-11T23:44:02.407Z,4.32
2023-02-11T23:46:30.122Z,4.68
2023-02-11T23:48:57.518Z,6.45
2023-02-11T23:51:25.417Z,5.20
2023-02-11T23:53:54.869Z,5.20
2023-02-11T23:58:54.429Z,5.03
